sensor_id;sensor_type;location;lat;lon;timestamp;pressure;altitude;pressure_sealevel;temperature
29423;BMP180;16399;51.686;8.684;2023-05-10T00:01:53;98996.00;;;15.20
29423;BMP180;16399;51.686;8.684;2023-05-10T00:04:55;98986.00;;;15.20
29423;BMP180;16399;51.686;8.684;2023-05-10T00:07:58;98988.00;;;15.20
29423;BMP180;16399;51.686;8.684;2023-05-10T00:11:00;98974.00;;;15.10
29423;BMP180;16399;51.686;8.684;2023-05-10T00:14:02;98988.00;;;15.10
29423;BMP180;16399;51.686;8.684;2023-05-10T00:17:05;98975.00;;;15.10
29423;BMP180;16399;51.686;8.684;2023-05-10T00:20:07;98974.00;;;15.00
29423;BMP180;16399;51.686;8.684;2023-05-10T00:23:10;98970.00;;;15.10
29423;BMP180;16399;51.686;8.684;2023-05-10T00:26:12;98968.00;;;15.10
29423;BMP180;16399;51.686;8.684;2023-05-10T00:29:15;98968.00;;;15.10
29423;BMP180;16399;51.686;8.684;2023-05-10T00:32:17;98970.00;;;15.10
29423;BMP180;16399;51.686;8.684;2023-05-10T00:35:19;98974.00;;;15.10
29423;BMP180;16399;51.686;8.684;2023-05-10T00:38:22;98961.00;;;15.10
29423;BMP180;16399;51.686;8.684;2023-05-10T00:41:25;98968.00;;;15.10
29423;BMP180;16399;51.686;8.684;2023-05-10T00:44:28;98963.00;;;15.10
29423;BMP180;16399;51.686;8.684;2023-05-10T00:47:30;98957.00;;;15.10
29423;BMP180;16399;51.686;8.684;2023-05-10T00:50:33;98955.00;;;15.00
29423;BMP180;16399;51.686;8.684;2023-05-10T00:53:36;98949.00;;;15.00
29423;BMP180;16399;51.686;8.684;2023-05-10T00:56:39;98952.00;;;15.00
29423;BMP180;16399;51.686;8.684;2023-05-10T00:59:41;98945.00;;;15.00
29423;BMP180;16399;51.686;8.684;2023-05-10T01:02:45;98952.00;;;15.00
29423;BMP180;16399;51.686;8.684;2023-05-10T01:05:47;98945.00;;;15.00
29423;BMP180;16399;51.686;8.684;2023-05-10T01:08:50;98953.00;;;15.10
29423;BMP180;16399;51.686;8.684;2023-05-10T01:11:53;98956.00;;;15.10
29423;BMP180;16399;51.686;8.684;2023-05-10T01:14:56;98951.00;;;15.10
29423;BMP180;16399;51.686;8.684;2023-05-10T01:18:00;98956.00;;;15.10
29423;BMP180;16399;51.686;8.684;2023-05-10T01:21:15;98958.00;;;15.00
29423;BMP180;16399;51.686;8.684;2023-05-10T01:34:52;98959.00;;;14.80
29423;BMP180;16399;51.686;8.684;2023-05-10T01:37:59;98969.00;;;14.70
29423;BMP180;16399;51.686;8.684;2023-05-10T01:48:08;98997.00;;;14.00
29423;BMP180;16399;51.686;8.684;2023-05-10T01:51:11;98992.00;;;13.80
29423;BMP180;16399;51.686;8.684;2023-05-10T01:54:15;98991.00;;;13.60
29423;BMP180;16399;51.686;8.684;2023-05-10T01:57:19;98994.00;;;13.50
29423;BMP180;16399;51.686;8.684;2023-05-10T02:00:23;99007.00;;;13.40
29423;BMP180;16399;51.686;8.684;2023-05-10T02:03:26;99012.00;;;13.30
29423;BMP180;16399;51.686;8.684;2023-05-10T02:06:29;99008.00;;;13.30
29423;BMP180;16399;51.686;8.684;2023-05-10T02:09:33;99007.00;;;13.20
29423;BMP180;16399;51.686;8.684;2023-05-10T02:12:43;99014.00;;;13.20
29423;BMP180;16399;51.686;8.684;2023-05-10T02:15:41;99016.00;;;13.20
29423;BMP180;16399;51.686;8.684;2023-05-10T02:18:46;99018.00;;;13.10
29423;BMP180;16399;51.686;8.684;2023-05-10T02:21:49;99015.00;;;13.10
29423;BMP180;16399;51.686;8.684;2023-05-10T02:24:54;99008.00;;;13.10
29423;BMP180;16399;51.686;8.684;2023-05-10T02:27:58;99017.00;;;13.10
29423;BMP180;16399;51.686;8.684;2023-05-10T02:31:02;99020.00;;;13.10
29423;BMP180;16399;51.686;8.684;2023-05-10T02:34:06;99022.00;;;13.10
29423;BMP180;16399;51.686;8.684;2023-05-10T02:37:10;99023.00;;;13.00
29423;BMP180;16399;51.686;8.684;2023-05-10T02:40:13;99024.00;;;13.10
29423;BMP180;16399;51.686;8.684;2023-05-10T02:43:18;99026.00;;;13.10
29423;BMP180;16399;51.686;8.684;2023-05-10T02:46:23;99033.00;;;13.10
29423;BMP180;16399;51.686;8.684;2023-05-10T02:49:26;99021.00;;;13.10
29423;BMP180;16399;51.686;8.684;2023-05-10T02:52:34;99019.00;;;13.10
29423;BMP180;16399;51.686;8.684;2023-05-10T02:55:36;99030.00;;;13.10
29423;BMP180;16399;51.686;8.684;2023-05-10T02:58:39;99023.00;;;13.10
29423;BMP180;16399;51.686;8.684;2023-05-10T03:01:41;99027.00;;;13.10
29423;BMP180;16399;51.686;8.684;2023-05-10T03:04:44;99024.00;;;13.10
29423;BMP180;16399;51.686;8.684;2023-05-10T03:07:46;99022.00;;;13.10
29423;BMP180;16399;51.686;8.684;2023-05-10T03:20:43;99023.00;;;13.10
29423;BMP180;16399;51.686;8.684;2023-05-10T03:23:52;99032.00;;;13.00
29423;BMP180;16399;51.686;8.684;2023-05-10T03:26:56;99036.00;;;13.00
29423;BMP180;16399;51.686;8.684;2023-05-10T03:30:00;99038.00;;;13.00
29423;BMP180;16399;51.686;8.684;2023-05-10T03:33:06;99034.00;;;13.00
29423;BMP180;16399;51.686;8.684;2023-05-10T03:36:09;99033.00;;;13.00
29423;BMP180;16399;51.686;8.684;2023-05-10T03:39:12;99039.00;;;13.00
29423;BMP180;16399;51.686;8.684;2023-05-10T03:42:14;99043.00;;;13.00
29423;BMP180;16399;51.686;8.684;2023-05-10T03:45:18;99050.00;;;13.00
29423;BMP180;16399;51.686;8.684;2023-05-10T03:48:20;99048.00;;;13.00
29423;BMP180;16399;51.686;8.684;2023-05-10T03:51:22;99056.00;;;13.00
29423;BMP180;16399;51.686;8.684;2023-05-10T03:54:26;99051.00;;;13.00
29423;BMP180;16399;51.686;8.684;2023-05-10T03:57:29;99050.00;;;13.00
29423;BMP180;16399;51.686;8.684;2023-05-10T04:00:31;99063.00;;;13.00
29423;BMP180;16399;51.686;8.684;2023-05-10T04:03:33;99061.00;;;13.00
29423;BMP180;16399;51.686;8.684;2023-05-10T04:06:38;99060.00;;;13.00
29423;BMP180;16399;51.686;8.684;2023-05-10T04:09:40;99070.00;;;12.90
29423;BMP180;16399;51.686;8.684;2023-05-10T04:12:43;99057.00;;;12.90
29423;BMP180;16399;51.686;8.684;2023-05-10T04:15:45;99072.00;;;12.90
29423;BMP180;16399;51.686;8.684;2023-05-10T04:18:47;99069.00;;;13.00
29423;BMP180;16399;51.686;8.684;2023-05-10T04:21:50;99075.00;;;13.00
29423;BMP180;16399;51.686;8.684;2023-05-10T04:24:52;99065.00;;;12.90
29423;BMP180;16399;51.686;8.684;2023-05-10T04:27:54;99067.00;;;12.90
29423;BMP180;16399;51.686;8.684;2023-05-10T04:31:07;99075.00;;;12.90
29423;BMP180;16399;51.686;8.684;2023-05-10T04:34:10;99080.00;;;12.90
29423;BMP180;16399;51.686;8.684;2023-05-10T04:37:12;99076.00;;;12.80
29423;BMP180;16399;51.686;8.684;2023-05-10T04:40:14;99085.00;;;12.80
29423;BMP180;16399;51.686;8.684;2023-05-10T04:43:16;99091.00;;;12.80
29423;BMP180;16399;51.686;8.684;2023-05-10T04:46:19;99093.00;;;12.80
29423;BMP180;16399;51.686;8.684;2023-05-10T04:49:21;99096.00;;;12.80
29423;BMP180;16399;51.686;8.684;2023-05-10T04:52:23;99099.00;;;12.80
29423;BMP180;16399;51.686;8.684;2023-05-10T04:55:26;99116.00;;;12.80
29423;BMP180;16399;51.686;8.684;2023-05-10T04:58:28;99111.00;;;12.80
29423;BMP180;16399;51.686;8.684;2023-05-10T05:01:30;99113.00;;;12.70
29423;BMP180;16399;51.686;8.684;2023-05-10T05:04:33;99119.00;;;12.70
29423;BMP180;16399;51.686;8.684;2023-05-10T05:07:35;99132.00;;;12.70
29423;BMP180;16399;51.686;8.684;2023-05-10T05:10:38;99124.00;;;12.70
29423;BMP180;16399;51.686;8.684;2023-05-10T05:13:40;99131.00;;;12.60
29423;BMP180;16399;51.686;8.684;2023-05-10T05:16:43;99136.00;;;12.60
29423;BMP180;16399;51.686;8.684;2023-05-10T05:19:45;99137.00;;;12.60
29423;BMP180;16399;51.686;8.684;2023-05-10T05:22:47;99146.00;;;12.60
29423;BMP180;16399;51.686;8.684;2023-05-10T05:25:52;99151.00;;;12.60
29423;BMP180;16399;51.686;8.684;2023-05-10T05:28:55;99146.00;;;12.50
29423;BMP180;16399;51.686;8.684;2023-05-10T05:31:57;99153.00;;;12.50
29423;BMP180;16399;51.686;8.684;2023-05-10T05:34:59;99149.00;;;12.50
29423;BMP180;16399;51.686;8.684;2023-05-10T05:38:01;99151.00;;;12.50
29423;BMP180;16399;51.686;8.684;2023-05-10T05:41:04;99155.00;;;12.50
29423;BMP180;16399;51.686;8.684;2023-05-10T05:44:06;99159.00;;;12.50
29423;BMP180;16399;51.686;8.684;2023-05-10T05:47:08;99167.00;;;12.40
29423;BMP180;16399;51.686;8.684;2023-05-10T05:50:11;99177.00;;;12.50
29423;BMP180;16399;51.686;8.684;2023-05-10T05:53:14;99169.00;;;12.50
29423;BMP180;16399;51.686;8.684;2023-05-10T05:56:16;99172.00;;;12.40
29423;BMP180;16399;51.686;8.684;2023-05-10T05:59:21;99180.00;;;12.40
29423;BMP180;16399;51.686;8.684;2023-05-10T06:02:23;99196.00;;;12.40
29423;BMP180;16399;51.686;8.684;2023-05-10T06:05:25;99193.00;;;12.40
29423;BMP180;16399;51.686;8.684;2023-05-10T06:08:27;99200.00;;;12.40
29423;BMP180;16399;51.686;8.684;2023-05-10T06:11:30;99195.00;;;12.50
29423;BMP180;16399;51.686;8.684;2023-05-10T06:14:33;99202.00;;;12.40
29423;BMP180;16399;51.686;8.684;2023-05-10T06:17:35;99204.00;;;12.50
29423;BMP180;16399;51.686;8.684;2023-05-10T06:20:38;99202.00;;;12.50
29423;BMP180;16399;51.686;8.684;2023-05-10T06:23:40;99202.00;;;12.50
29423;BMP180;16399;51.686;8.684;2023-05-10T06:26:42;99211.00;;;12.50
29423;BMP180;16399;51.686;8.684;2023-05-10T06:29:44;99224.00;;;12.50
29423;BMP180;16399;51.686;8.684;2023-05-10T06:32:47;99223.00;;;12.60
29423;BMP180;16399;51.686;8.684;2023-05-10T06:35:49;99230.00;;;12.60
29423;BMP180;16399;51.686;8.684;2023-05-10T06:38:51;99226.00;;;12.70
29423;BMP180;16399;51.686;8.684;2023-05-10T06:41:53;99232.00;;;12.70
29423;BMP180;16399;51.686;8.684;2023-05-10T06:44:56;99227.00;;;12.70
29423;BMP180;16399;51.686;8.684;2023-05-10T06:47:58;99246.00;;;12.70
29423;BMP180;16399;51.686;8.684;2023-05-10T06:51:00;99235.00;;;12.80
29423;BMP180;16399;51.686;8.684;2023-05-10T06:54:03;99237.00;;;12.80
29423;BMP180;16399;51.686;8.684;2023-05-10T06:57:05;99242.00;;;12.80
29423;BMP180;16399;51.686;8.684;2023-05-10T07:00:08;99240.00;;;12.80
29423;BMP180;16399;51.686;8.684;2023-05-10T07:03:11;99246.00;;;12.90
29423;BMP180;16399;51.686;8.684;2023-05-10T07:06:13;99240.00;;;12.90
29423;BMP180;16399;51.686;8.684;2023-05-10T07:09:15;99247.00;;;12.90
29423;BMP180;16399;51.686;8.684;2023-05-10T07:12:18;99249.00;;;13.10
29423;BMP180;16399;51.686;8.684;2023-05-10T07:15:21;99253.00;;;13.20
29423;BMP180;16399;51.686;8.684;2023-05-10T07:18:23;99246.00;;;13.20
29423;BMP180;16399;51.686;8.684;2023-05-10T07:21:25;99246.00;;;13.30
29423;BMP180;16399;51.686;8.684;2023-05-10T07:24:29;99244.00;;;13.30
29423;BMP180;16399;51.686;8.684;2023-05-10T07:27:32;99253.00;;;13.40
29423;BMP180;16399;51.686;8.684;2023-05-10T07:30:34;99254.00;;;13.50
29423;BMP180;16399;51.686;8.684;2023-05-10T07:33:37;99254.00;;;13.60
29423;BMP180;16399;51.686;8.684;2023-05-10T07:36:39;99242.00;;;13.70
29423;BMP180;16399;51.686;8.684;2023-05-10T07:39:41;99245.00;;;13.80
29423;BMP180;16399;51.686;8.684;2023-05-10T07:42:44;99239.00;;;14.00
29423;BMP180;16399;51.686;8.684;2023-05-10T07:45:46;99253.00;;;14.20
29423;BMP180;16399;51.686;8.684;2023-05-10T07:48:48;99251.00;;;14.30
29423;BMP180;16399;51.686;8.684;2023-05-10T07:51:50;99250.00;;;14.30
29423;BMP180;16399;51.686;8.684;2023-05-10T07:54:53;99256.00;;;14.30
29423;BMP180;16399;51.686;8.684;2023-05-10T07:57:55;99258.00;;;14.30
29423;BMP180;16399;51.686;8.684;2023-05-10T08:00:57;99252.00;;;14.20
29423;BMP180;16399;51.686;8.684;2023-05-10T08:04:00;99265.00;;;14.20
29423;BMP180;16399;51.686;8.684;2023-05-10T08:07:03;99263.00;;;14.10
29423;BMP180;16399;51.686;8.684;2023-05-10T08:10:06;99263.00;;;14.00
29423;BMP180;16399;51.686;8.684;2023-05-10T08:13:08;99262.00;;;14.00
29423;BMP180;16399;51.686;8.684;2023-05-10T08:16:11;99272.00;;;14.00
29423;BMP180;16399;51.686;8.684;2023-05-10T08:19:13;99280.00;;;14.10
29423;BMP180;16399;51.686;8.684;2023-05-10T08:22:17;99277.00;;;14.20
29423;BMP180;16399;51.686;8.684;2023-05-10T08:25:19;99285.00;;;14.30
29423;BMP180;16399;51.686;8.684;2023-05-10T08:28:22;99280.00;;;14.30
29423;BMP180;16399;51.686;8.684;2023-05-10T08:31:24;99287.00;;;14.30
29423;BMP180;16399;51.686;8.684;2023-05-10T08:34:27;99287.00;;;14.30
29423;BMP180;16399;51.686;8.684;2023-05-10T08:37:32;99297.00;;;14.30
29423;BMP180;16399;51.686;8.684;2023-05-10T08:40:34;99292.00;;;14.30
29423;BMP180;16399;51.686;8.684;2023-05-10T08:43:39;99299.00;;;14.20
29423;BMP180;16399;51.686;8.684;2023-05-10T08:46:43;99295.00;;;14.10
29423;BMP180;16399;51.686;8.684;2023-05-10T08:49:48;99300.00;;;14.10
29423;BMP180;16399;51.686;8.684;2023-05-10T08:52:53;99305.00;;;14.20
29423;BMP180;16399;51.686;8.684;2023-05-10T08:55:58;99299.00;;;14.30
29423;BMP180;16399;51.686;8.684;2023-05-10T08:59:00;99305.00;;;14.40
29423;BMP180;16399;51.686;8.684;2023-05-10T09:02:04;99310.00;;;14.50
29423;BMP180;16399;51.686;8.684;2023-05-10T09:05:08;99314.00;;;14.60
29423;BMP180;16399;51.686;8.684;2023-05-10T09:08:12;99312.00;;;14.60
29423;BMP180;16399;51.686;8.684;2023-05-10T09:11:16;99315.00;;;14.60
29423;BMP180;16399;51.686;8.684;2023-05-10T09:14:20;99315.00;;;14.70
29423;BMP180;16399;51.686;8.684;2023-05-10T09:17:23;99311.00;;;14.90
29423;BMP180;16399;51.686;8.684;2023-05-10T09:20:26;99307.00;;;15.20
29423;BMP180;16399;51.686;8.684;2023-05-10T09:23:29;99311.00;;;15.50
29423;BMP180;16399;51.686;8.684;2023-05-10T09:26:33;99314.00;;;15.90
29423;BMP180;16399;51.686;8.684;2023-05-10T09:29:43;99307.00;;;16.10
29423;BMP180;16399;51.686;8.684;2023-05-10T09:32:48;99309.00;;;16.30
29423;BMP180;16399;51.686;8.684;2023-05-10T09:35:52;99315.00;;;16.30
29423;BMP180;16399;51.686;8.684;2023-05-10T09:38:55;99320.00;;;16.30
29423;BMP180;16399;51.686;8.684;2023-05-10T09:41:59;99324.00;;;16.20
29423;BMP180;16399;51.686;8.684;2023-05-10T09:45:04;99314.00;;;16.20
29423;BMP180;16399;51.686;8.684;2023-05-10T09:48:06;99321.00;;;16.10
29423;BMP180;16399;51.686;8.684;2023-05-10T09:51:08;99319.00;;;16.20
29423;BMP180;16399;51.686;8.684;2023-05-10T09:54:13;99337.00;;;16.40
29423;BMP180;16399;51.686;8.684;2023-05-10T09:57:21;99331.00;;;16.50
29423;BMP180;16399;51.686;8.684;2023-05-10T10:00:23;99326.00;;;16.70
29423;BMP180;16399;51.686;8.684;2023-05-10T10:03:26;99324.00;;;16.90
29423;BMP180;16399;51.686;8.684;2023-05-10T10:06:28;99321.00;;;17.00
29423;BMP180;16399;51.686;8.684;2023-05-10T10:09:31;99329.00;;;17.00
29423;BMP180;16399;51.686;8.684;2023-05-10T10:12:33;99317.00;;;16.90
29423;BMP180;16399;51.686;8.684;2023-05-10T10:15:37;99326.00;;;17.10
29423;BMP180;16399;51.686;8.684;2023-05-10T10:18:40;99310.00;;;17.10
29423;BMP180;16399;51.686;8.684;2023-05-10T10:21:42;99317.00;;;17.00
29423;BMP180;16399;51.686;8.684;2023-05-10T10:24:45;99324.00;;;16.90
29423;BMP180;16399;51.686;8.684;2023-05-10T10:27:59;99324.00;;;16.80
29423;BMP180;16399;51.686;8.684;2023-05-10T10:31:01;99320.00;;;16.60
29423;BMP180;16399;51.686;8.684;2023-05-10T10:34:06;99330.00;;;16.60
29423;BMP180;16399;51.686;8.684;2023-05-10T10:37:09;99316.00;;;16.60
29423;BMP180;16399;51.686;8.684;2023-05-10T10:40:33;99308.00;;;17.00
29423;BMP180;16399;51.686;8.684;2023-05-10T10:43:36;99316.00;;;17.70
29423;BMP180;16399;51.686;8.684;2023-05-10T10:53:10;99292.00;;;19.10
29423;BMP180;16399;51.686;8.684;2023-05-10T10:56:13;99289.00;;;19.20
29423;BMP180;16399;51.686;8.684;2023-05-10T10:59:26;99290.00;;;19.50
29423;BMP180;16399;51.686;8.684;2023-05-10T11:02:42;99290.00;;;19.70
29423;BMP180;16399;51.686;8.684;2023-05-10T11:08:43;99299.00;;;19.70
29423;BMP180;16399;51.686;8.684;2023-05-10T11:11:54;99312.00;;;19.40
29423;BMP180;16399;51.686;8.684;2023-05-10T11:14:56;99315.00;;;19.00
29423;BMP180;16399;51.686;8.684;2023-05-10T11:17:58;99323.00;;;18.70
29423;BMP180;16399;51.686;8.684;2023-05-10T11:21:02;99323.00;;;18.40
29423;BMP180;16399;51.686;8.684;2023-05-10T11:24:12;99330.00;;;18.20
29423;BMP180;16399;51.686;8.684;2023-05-10T11:27:11;99329.00;;;17.90
29423;BMP180;16399;51.686;8.684;2023-05-10T11:30:15;99334.00;;;17.90
29423;BMP180;16399;51.686;8.684;2023-05-10T11:33:18;99327.00;;;17.80
29423;BMP180;16399;51.686;8.684;2023-05-10T11:36:27;99329.00;;;17.90
29423;BMP180;16399;51.686;8.684;2023-05-10T11:39:31;99330.00;;;18.00
29423;BMP180;16399;51.686;8.684;2023-05-10T11:42:34;99330.00;;;18.20
29423;BMP180;16399;51.686;8.684;2023-05-10T11:45:36;99320.00;;;18.30
29423;BMP180;16399;51.686;8.684;2023-05-10T11:48:39;99341.00;;;18.20
29423;BMP180;16399;51.686;8.684;2023-05-10T11:51:42;99338.00;;;18.10
29423;BMP180;16399;51.686;8.684;2023-05-10T11:54:54;99340.00;;;18.00
29423;BMP180;16399;51.686;8.684;2023-05-10T11:58:00;99345.00;;;18.00
29423;BMP180;16399;51.686;8.684;2023-05-10T12:01:03;99353.00;;;18.00
29423;BMP180;16399;51.686;8.684;2023-05-10T12:04:06;99367.00;;;17.80
29423;BMP180;16399;51.686;8.684;2023-05-10T12:07:09;99373.00;;;17.40
29423;BMP180;16399;51.686;8.684;2023-05-10T12:10:13;99376.00;;;17.00
29423;BMP180;16399;51.686;8.684;2023-05-10T12:13:16;99375.00;;;16.70
29423;BMP180;16399;51.686;8.684;2023-05-10T12:16:23;99381.00;;;16.30
29423;BMP180;16399;51.686;8.684;2023-05-10T12:19:26;99386.00;;;16.10
29423;BMP180;16399;51.686;8.684;2023-05-10T12:22:28;99388.00;;;16.00
29423;BMP180;16399;51.686;8.684;2023-05-10T12:25:32;99385.00;;;16.00
29423;BMP180;16399;51.686;8.684;2023-05-10T12:28:36;99379.00;;;15.90
29423;BMP180;16399;51.686;8.684;2023-05-10T12:31:56;99379.00;;;16.00
29423;BMP180;16399;51.686;8.684;2023-05-10T12:34:59;99387.00;;;16.20
29423;BMP180;16399;51.686;8.684;2023-05-10T12:38:01;99393.00;;;16.40
29423;BMP180;16399;51.686;8.684;2023-05-10T12:41:09;99385.00;;;16.40
29423;BMP180;16399;51.686;8.684;2023-05-10T12:44:12;99389.00;;;16.70
29423;BMP180;16399;51.686;8.684;2023-05-10T12:47:14;99390.00;;;16.90
29423;BMP180;16399;51.686;8.684;2023-05-10T12:50:17;99394.00;;;17.00
29423;BMP180;16399;51.686;8.684;2023-05-10T12:53:19;99398.00;;;17.10
29423;BMP180;16399;51.686;8.684;2023-05-10T12:56:21;99400.00;;;17.10
29423;BMP180;16399;51.686;8.684;2023-05-10T12:59:23;99401.00;;;17.10
29423;BMP180;16399;51.686;8.684;2023-05-10T13:02:26;99406.00;;;17.20
29423;BMP180;16399;51.686;8.684;2023-05-10T13:05:28;99411.00;;;17.30
29423;BMP180;16399;51.686;8.684;2023-05-10T13:08:30;99401.00;;;17.30
29423;BMP180;16399;51.686;8.684;2023-05-10T13:11:34;99401.00;;;17.30
29423;BMP180;16399;51.686;8.684;2023-05-10T13:14:37;99402.00;;;17.30
29423;BMP180;16399;51.686;8.684;2023-05-10T13:17:42;99403.00;;;17.40
29423;BMP180;16399;51.686;8.684;2023-05-10T13:20:44;99401.00;;;17.50
29423;BMP180;16399;51.686;8.684;2023-05-10T13:23:47;99387.00;;;17.60
29423;BMP180;16399;51.686;8.684;2023-05-10T13:26:49;99381.00;;;17.80
29423;BMP180;16399;51.686;8.684;2023-05-10T13:29:51;99379.00;;;18.00
29423;BMP180;16399;51.686;8.684;2023-05-10T13:32:53;99373.00;;;18.10
29423;BMP180;16399;51.686;8.684;2023-05-10T13:35:56;99373.00;;;18.20
29423;BMP180;16399;51.686;8.684;2023-05-10T13:38:58;99378.00;;;18.30
29423;BMP180;16399;51.686;8.684;2023-05-10T13:42:02;99370.00;;;18.30
29423;BMP180;16399;51.686;8.684;2023-05-10T13:45:05;99394.00;;;18.40
29423;BMP180;16399;51.686;8.684;2023-05-10T13:48:07;99393.00;;;18.50
29423;BMP180;16399;51.686;8.684;2023-05-10T13:51:10;99407.00;;;18.60
29423;BMP180;16399;51.686;8.684;2023-05-10T13:54:12;99411.00;;;18.50
29423;BMP180;16399;51.686;8.684;2023-05-10T13:57:14;99424.00;;;18.30
29423;BMP180;16399;51.686;8.684;2023-05-10T14:00:18;99433.00;;;18.00
29423;BMP180;16399;51.686;8.684;2023-05-10T14:03:20;99463.00;;;17.60
29423;BMP180;16399;51.686;8.684;2023-05-10T14:06:22;99466.00;;;17.20
29423;BMP180;16399;51.686;8.684;2023-05-10T14:09:24;99475.00;;;16.70
29423;BMP180;16399;51.686;8.684;2023-05-10T14:12:27;99480.00;;;16.10
29423;BMP180;16399;51.686;8.684;2023-05-10T14:15:30;99487.00;;;15.40
29423;BMP180;16399;51.686;8.684;2023-05-10T14:18:32;99487.00;;;15.00
29423;BMP180;16399;51.686;8.684;2023-05-10T14:21:34;99485.00;;;14.60
29423;BMP180;16399;51.686;8.684;2023-05-10T14:24:38;99483.00;;;14.40
29423;BMP180;16399;51.686;8.684;2023-05-10T14:27:40;99476.00;;;14.30
29423;BMP180;16399;51.686;8.684;2023-05-10T14:30:42;99477.00;;;14.10
29423;BMP180;16399;51.686;8.684;2023-05-10T14:33:45;99483.00;;;14.00
29423;BMP180;16399;51.686;8.684;2023-05-10T14:36:47;99486.00;;;14.00
29423;BMP180;16399;51.686;8.684;2023-05-10T14:39:49;99485.00;;;14.00
29423;BMP180;16399;51.686;8.684;2023-05-10T14:42:52;99482.00;;;14.00
29423;BMP180;16399;51.686;8.684;2023-05-10T14:45:54;99488.00;;;14.00
29423;BMP180;16399;51.686;8.684;2023-05-10T14:48:56;99488.00;;;14.00
29423;BMP180;16399;51.686;8.684;2023-05-10T14:51:59;99483.00;;;14.10
29423;BMP180;16399;51.686;8.684;2023-05-10T14:55:01;99478.00;;;14.10
29423;BMP180;16399;51.686;8.684;2023-05-10T14:58:03;99484.00;;;14.20
29423;BMP180;16399;51.686;8.684;2023-05-10T15:01:06;99487.00;;;14.20
29423;BMP180;16399;51.686;8.684;2023-05-10T15:04:08;99486.00;;;14.30
29423;BMP180;16399;51.686;8.684;2023-05-10T15:07:11;99486.00;;;14.40
29423;BMP180;16399;51.686;8.684;2023-05-10T15:10:15;99493.00;;;14.40
29423;BMP180;16399;51.686;8.684;2023-05-10T15:13:17;99481.00;;;14.40
29423;BMP180;16399;51.686;8.684;2023-05-10T15:16:19;99493.00;;;14.50
29423;BMP180;16399;51.686;8.684;2023-05-10T15:19:21;99485.00;;;14.50
29423;BMP180;16399;51.686;8.684;2023-05-10T15:22:24;99480.00;;;14.50
29423;BMP180;16399;51.686;8.684;2023-05-10T15:25:26;99485.00;;;14.50
29423;BMP180;16399;51.686;8.684;2023-05-10T15:28:30;99493.00;;;14.50
29423;BMP180;16399;51.686;8.684;2023-05-10T15:31:32;99493.00;;;14.40
29423;BMP180;16399;51.686;8.684;2023-05-10T15:34:36;99492.00;;;14.40
29423;BMP180;16399;51.686;8.684;2023-05-10T15:37:38;99499.00;;;14.30
29423;BMP180;16399;51.686;8.684;2023-05-10T15:40:40;99501.00;;;14.30
29423;BMP180;16399;51.686;8.684;2023-05-10T15:43:43;99504.00;;;14.30
29423;BMP180;16399;51.686;8.684;2023-05-10T15:46:45;99505.00;;;14.20
29423;BMP180;16399;51.686;8.684;2023-05-10T15:49:47;99501.00;;;14.10
29423;BMP180;16399;51.686;8.684;2023-05-10T15:52:50;99510.00;;;14.00
29423;BMP180;16399;51.686;8.684;2023-05-10T15:55:52;99511.00;;;13.80
29423;BMP180;16399;51.686;8.684;2023-05-10T15:58:55;99505.00;;;13.70
29423;BMP180;16399;51.686;8.684;2023-05-10T16:01:57;99501.00;;;13.70
29423;BMP180;16399;51.686;8.684;2023-05-10T16:05:00;99513.00;;;13.70
29423;BMP180;16399;51.686;8.684;2023-05-10T16:08:02;99523.00;;;13.70
29423;BMP180;16399;51.686;8.684;2023-05-10T16:11:04;99516.00;;;13.70
29423;BMP180;16399;51.686;8.684;2023-05-10T16:14:08;99519.00;;;13.60
29423;BMP180;16399;51.686;8.684;2023-05-10T16:17:10;99524.00;;;13.60
29423;BMP180;16399;51.686;8.684;2023-05-10T16:20:13;99528.00;;;13.50
29423;BMP180;16399;51.686;8.684;2023-05-10T16:23:15;99530.00;;;13.40
29423;BMP180;16399;51.686;8.684;2023-05-10T16:26:17;99535.00;;;13.30
29423;BMP180;16399;51.686;8.684;2023-05-10T16:29:19;99523.00;;;13.20
29423;BMP180;16399;51.686;8.684;2023-05-10T16:32:22;99529.00;;;13.20
29423;BMP180;16399;51.686;8.684;2023-05-10T16:35:24;99528.00;;;13.20
29423;BMP180;16399;51.686;8.684;2023-05-10T16:38:27;99538.00;;;13.30
29423;BMP180;16399;51.686;8.684;2023-05-10T16:41:33;99538.00;;;13.30
29423;BMP180;16399;51.686;8.684;2023-05-10T16:44:36;99541.00;;;13.30
29423;BMP180;16399;51.686;8.684;2023-05-10T16:47:39;99539.00;;;13.30
29423;BMP180;16399;51.686;8.684;2023-05-10T16:50:44;99542.00;;;13.30
29423;BMP180;16399;51.686;8.684;2023-05-10T16:53:46;99546.00;;;13.30
29423;BMP180;16399;51.686;8.684;2023-05-10T16:56:49;99544.00;;;13.30
29423;BMP180;16399;51.686;8.684;2023-05-10T16:59:51;99547.00;;;13.30
29423;BMP180;16399;51.686;8.684;2023-05-10T17:02:56;99546.00;;;13.30
29423;BMP180;16399;51.686;8.684;2023-05-10T17:05:58;99538.00;;;13.30
29423;BMP180;16399;51.686;8.684;2023-05-10T17:09:01;99535.00;;;13.20
29423;BMP180;16399;51.686;8.684;2023-05-10T17:12:04;99532.00;;;13.20
29423;BMP180;16399;51.686;8.684;2023-05-10T17:15:07;99538.00;;;13.20
29423;BMP180;16399;51.686;8.684;2023-05-10T17:18:09;99549.00;;;13.20
29423;BMP180;16399;51.686;8.684;2023-05-10T17:21:11;99554.00;;;13.20
29423;BMP180;16399;51.686;8.684;2023-05-10T17:24:14;99554.00;;;13.10
29423;BMP180;16399;51.686;8.684;2023-05-10T17:27:16;99554.00;;;13.10
29423;BMP180;16399;51.686;8.684;2023-05-10T17:30:18;99551.00;;;13.10
29423;BMP180;16399;51.686;8.684;2023-05-10T17:33:22;99561.00;;;13.20
29423;BMP180;16399;51.686;8.684;2023-05-10T17:36:25;99554.00;;;13.20
29423;BMP180;16399;51.686;8.684;2023-05-10T17:39:28;99555.00;;;13.20
29423;BMP180;16399;51.686;8.684;2023-05-10T17:42:30;99553.00;;;13.20
29423;BMP180;16399;51.686;8.684;2023-05-10T17:45:33;99562.00;;;13.20
29423;BMP180;16399;51.686;8.684;2023-05-10T17:48:35;99553.00;;;13.20
29423;BMP180;16399;51.686;8.684;2023-05-10T17:51:38;99555.00;;;13.20
29423;BMP180;16399;51.686;8.684;2023-05-10T17:54:42;99556.00;;;13.20
29423;BMP180;16399;51.686;8.684;2023-05-10T17:57:44;99570.00;;;13.20
29423;BMP180;16399;51.686;8.684;2023-05-10T18:00:46;99562.00;;;13.20
29423;BMP180;16399;51.686;8.684;2023-05-10T18:03:49;99574.00;;;13.20
29423;BMP180;16399;51.686;8.684;2023-05-10T18:06:52;99577.00;;;13.20
29423;BMP180;16399;51.686;8.684;2023-05-10T18:09:56;99579.00;;;13.20
29423;BMP180;16399;51.686;8.684;2023-05-10T18:12:59;99584.00;;;13.20